EWG3KP LOWI-EDDL
Flight info
| Callsign | EWG3KP |
|---|---|
| Flight time | 1h 5m |
| Altitude | 38000 |
| Route | ADILO Y703 MOGTI P66 KPT L608 TEDGO/N0450F370 DCT HAREM DCT LOHRE/N0453F380 Z850 ARPEG/N0411F240 Z850 ADEMI T854 DOMUX DOMUX1A |
| Aircraft | A319/M-SDE3FGHIRWY/LB1 |
Departure
| Time | 2026-05-07 14:01 |
|---|---|
| Airport | Innsbruck Airport (LOWI) |
Arrival
| Time | 2026-05-07 15:07 |
|---|---|
| Airport | Düsseldorf Airport (EDDL) |
| Time | Latitude | Longitude | Altitude | Speed | Heading |
|---|---|---|---|---|---|
| 2026-05-07 13:34 | 47.25833 | 11.35177 | 1908 ft | 0 kts | 171° |
| 2026-05-07 13:52 | 47.25854 | 11.35173 | 1908 ft | 4 kts | 174° |
| 2026-05-07 13:52 | 47.25876 | 11.35171 | 1897 ft | 2 kts | 191° |
| 2026-05-07 13:52 | 47.25887 | 11.35176 | 1896 ft | 2 kts | 230° |
| 2026-05-07 13:52 | 47.25893 | 11.35190 | 1897 ft | 2 kts | 256° |
| 2026-05-07 13:53 | 47.25896 | 11.35205 | 1895 ft | 2 kts | 262° |
| 2026-05-07 13:53 | 47.25897 | 11.35216 | 1896 ft | 0 kts | 261° |
| 2026-05-07 13:54 | 47.25895 | 11.35199 | 1897 ft | 4 kts | 261° |
| 2026-05-07 13:55 | 47.25887 | 11.35125 | 1904 ft | 11 kts | 260° |
| 2026-05-07 13:55 | 47.25874 | 11.35007 | 1907 ft | 12 kts | 261° |
| 2026-05-07 13:55 | 47.25861 | 11.34882 | 1905 ft | 12 kts | 261° |
| 2026-05-07 13:55 | 47.25847 | 11.34760 | 1904 ft | 12 kts | 261° |
| 2026-05-07 13:56 | 47.25833 | 11.34626 | 1906 ft | 15 kts | 261° |
| 2026-05-07 13:56 | 47.25817 | 11.34479 | 1906 ft | 14 kts | 261° |
| 2026-05-07 13:56 | 47.25789 | 11.34330 | 1901 ft | 15 kts | 252° |
| 2026-05-07 13:56 | 47.25760 | 11.34192 | 1903 ft | 14 kts | 257° |
| 2026-05-07 13:57 | 47.25758 | 11.34082 | 1912 ft | 6 kts | 281° |
| 2026-05-07 13:57 | 47.25767 | 11.34029 | 1903 ft | 7 kts | 283° |
| 2026-05-07 13:57 | 47.25780 | 11.33959 | 1910 ft | 7 kts | 288° |
| 2026-05-07 13:57 | 47.25803 | 11.33897 | 1917 ft | 7 kts | 306° |
| 2026-05-07 13:58 | 47.25832 | 11.33834 | 1917 ft | 9 kts | 306° |
| 2026-05-07 13:58 | 47.25876 | 11.33747 | 1918 ft | 13 kts | 307° |
| 2026-05-07 13:58 | 47.25932 | 11.33615 | 1918 ft | 16 kts | 282° |
| 2026-05-07 13:58 | 47.25918 | 11.33451 | 1918 ft | 16 kts | 261° |
| 2026-05-07 13:59 | 47.25900 | 11.33284 | 1918 ft | 14 kts | 260° |
| 2026-05-07 13:59 | 47.25863 | 11.33211 | 1919 ft | 13 kts | 213° |
| 2026-05-07 13:59 | 47.25853 | 11.33079 | 1922 ft | 9 kts | 338° |
| 2026-05-07 13:59 | 47.25885 | 11.33138 | 1919 ft | 0 kts | 82° |
| 2026-05-07 14:00 | 47.25885 | 11.33141 | 1919 ft | 2 kts | 82° |
| 2026-05-07 14:00 | 47.25890 | 11.33187 | 1919 ft | 22 kts | 81° |
| 2026-05-07 14:00 | 47.25996 | 11.34166 | 1901 ft | 119 kts | 81° |
| 2026-05-07 14:00 | 47.26098 | 11.35113 | 1905 ft | 157 kts | 81° |
| 2026-05-07 14:01 | 47.26262 | 11.36755 | 2449 ft | 161 kts | 81° |
| 2026-05-07 14:01 | 47.26434 | 11.38404 | 3145 ft | 164 kts | 80° |
| 2026-05-07 14:01 | 47.26626 | 11.40160 | 3709 ft | 183 kts | 80° |
| 2026-05-07 14:01 | 47.26841 | 11.42060 | 4389 ft | 191 kts | 80° |
| 2026-05-07 14:02 | 47.27058 | 11.44017 | 5099 ft | 196 kts | 79° |
| 2026-05-07 14:02 | 47.27470 | 11.45925 | 5819 ft | 197 kts | 68° |
| 2026-05-07 14:02 | 47.27960 | 11.47805 | 6556 ft | 198 kts | 66° |
| 2026-05-07 14:02 | 47.28501 | 11.49690 | 7239 ft | 201 kts | 64° |
| 2026-05-07 14:03 | 47.29052 | 11.51594 | 7997 ft | 202 kts | 65° |
| 2026-05-07 14:03 | 47.29601 | 11.53515 | 8703 ft | 204 kts | 65° |
| 2026-05-07 14:03 | 47.30149 | 11.55449 | 9249 ft | 205 kts | 65° |
| 2026-05-07 14:03 | 47.30700 | 11.57405 | 9821 ft | 208 kts | 66° |
| 2026-05-07 14:04 | 47.31258 | 11.59379 | 10416 ft | 209 kts | 65° |
| 2026-05-07 14:04 | 47.31684 | 11.61441 | 10949 ft | 213 kts | 85° |
| 2026-05-07 14:04 | 47.31432 | 11.63579 | 11501 ft | 214 kts | 118° |
| 2026-05-07 14:04 | 47.30480 | 11.65212 | 12106 ft | 210 kts | 150° |
| 2026-05-07 14:05 | 47.29134 | 11.65897 | 12667 ft | 205 kts | 182° |
| 2026-05-07 14:05 | 47.27760 | 11.65513 | 13293 ft | 201 kts | 210° |
| 2026-05-07 14:05 | 47.26707 | 11.64228 | 13749 ft | 197 kts | 238° |
| 2026-05-07 14:05 | 47.26198 | 11.62381 | 14204 ft | 196 kts | 261° |
| 2026-05-07 14:06 | 47.25925 | 11.60406 | 14736 ft | 197 kts | 259° |
| 2026-05-07 14:06 | 47.25642 | 11.58416 | 15169 ft | 200 kts | 259° |
| 2026-05-07 14:06 | 47.25353 | 11.56403 | 15722 ft | 201 kts | 259° |
| 2026-05-07 14:06 | 47.25061 | 11.54374 | 16160 ft | 207 kts | 259° |
| 2026-05-07 14:07 | 47.24747 | 11.52188 | 16306 ft | 229 kts | 259° |
| 2026-05-07 14:07 | 47.24404 | 11.49817 | 16465 ft | 252 kts | 259° |
| 2026-05-07 14:07 | 47.24023 | 11.47179 | 16663 ft | 276 kts | 259° |
| 2026-05-07 14:07 | 47.23996 | 11.44262 | 16901 ft | 299 kts | 282° |
| 2026-05-07 14:08 | 47.24593 | 11.41217 | 17108 ft | 322 kts | 287° |
| 2026-05-07 14:08 | 47.25296 | 11.37965 | 17235 ft | 344 kts | 287° |
| 2026-05-07 14:08 | 47.26059 | 11.34512 | 17480 ft | 364 kts | 287° |
| 2026-05-07 14:08 | 47.26848 | 11.30932 | 18003 ft | 371 kts | 287° |
| 2026-05-07 14:09 | 47.27645 | 11.27279 | 18584 ft | 377 kts | 287° |
| 2026-05-07 14:09 | 47.28446 | 11.23576 | 19184 ft | 382 kts | 287° |
| 2026-05-07 14:09 | 47.29252 | 11.19827 | 19821 ft | 385 kts | 287° |
| 2026-05-07 14:09 | 47.30063 | 11.16047 | 20433 ft | 389 kts | 287° |
| 2026-05-07 14:10 | 47.30882 | 11.12218 | 21021 ft | 392 kts | 287° |
| 2026-05-07 14:10 | 47.31719 | 11.08924 | 21289 ft | 398 kts | 295° |
| 2026-05-07 14:11 | 47.32794 | 11.05175 | 22014 ft | 398 kts | 289° |
| 2026-05-07 14:11 | 47.33640 | 11.01270 | 22454 ft | 402 kts | 285° |
| 2026-05-07 14:11 | 47.34365 | 10.97257 | 22837 ft | 408 kts | 284° |
| 2026-05-07 14:11 | 47.35064 | 10.93185 | 23176 ft | 412 kts | 283° |
| 2026-05-07 14:12 | 47.35752 | 10.89068 | 23564 ft | 415 kts | 283° |
| 2026-05-07 14:12 | 47.36453 | 10.84937 | 24103 ft | 415 kts | 284° |
| 2026-05-07 14:12 | 47.37179 | 10.80805 | 24546 ft | 417 kts | 284° |
| 2026-05-07 14:12 | 47.38072 | 10.76772 | 24860 ft | 422 kts | 293° |
| 2026-05-07 14:13 | 47.39523 | 10.72930 | 25213 ft | 427 kts | 304° |
| 2026-05-07 14:13 | 47.41434 | 10.69566 | 25658 ft | 430 kts | 314° |
| 2026-05-07 14:13 | 47.43749 | 10.66751 | 26085 ft | 433 kts | 323° |
| 2026-05-07 14:13 | 47.46240 | 10.64217 | 26513 ft | 435 kts | 324° |
| 2026-05-07 14:14 | 47.48747 | 10.61667 | 26836 ft | 439 kts | 324° |
| 2026-05-07 14:14 | 47.51268 | 10.59099 | 27196 ft | 443 kts | 324° |
| 2026-05-07 14:14 | 47.53813 | 10.56496 | 27549 ft | 445 kts | 323° |
| 2026-05-07 14:14 | 47.56368 | 10.53872 | 27916 ft | 447 kts | 323° |
| 2026-05-07 14:15 | 47.58922 | 10.51235 | 28307 ft | 448 kts | 323° |
| 2026-05-07 14:15 | 47.61481 | 10.48583 | 28623 ft | 451 kts | 323° |
| 2026-05-07 14:15 | 47.64056 | 10.45911 | 28995 ft | 452 kts | 323° |
| 2026-05-07 14:15 | 47.66639 | 10.43230 | 29344 ft | 454 kts | 323° |
| 2026-05-07 14:16 | 47.69229 | 10.40538 | 29675 ft | 456 kts | 323° |
| 2026-05-07 14:16 | 47.71832 | 10.37831 | 30000 ft | 458 kts | 323° |
| 2026-05-07 14:16 | 47.74035 | 10.35541 | 30253 ft | 459 kts | 323° |
| 2026-05-07 14:16 | 47.76616 | 10.32732 | 30556 ft | 461 kts | 321° |
| 2026-05-07 14:17 | 47.79134 | 10.29779 | 30916 ft | 461 kts | 319° |
| 2026-05-07 14:17 | 47.81598 | 10.26734 | 31338 ft | 459 kts | 318° |
| 2026-05-07 14:17 | 47.83993 | 10.23699 | 31727 ft | 458 kts | 318° |
| 2026-05-07 14:17 | 47.86451 | 10.20580 | 32124 ft | 458 kts | 318° |
| 2026-05-07 14:18 | 47.88888 | 10.17525 | 32531 ft | 457 kts | 319° |
| 2026-05-07 14:18 | 47.91305 | 10.14530 | 32930 ft | 456 kts | 319° |
| 2026-05-07 14:18 | 47.93782 | 10.11492 | 33337 ft | 455 kts | 319° |
| 2026-05-07 14:18 | 47.96233 | 10.08503 | 33730 ft | 454 kts | 319° |
| 2026-05-07 14:19 | 47.98678 | 10.05524 | 34100 ft | 453 kts | 319° |
| 2026-05-07 14:19 | 48.01115 | 10.02546 | 34470 ft | 453 kts | 319° |
| 2026-05-07 14:19 | 48.03552 | 9.99559 | 34844 ft | 452 kts | 319° |
| 2026-05-07 14:19 | 48.05977 | 9.96575 | 35197 ft | 451 kts | 319° |
| 2026-05-07 14:20 | 48.08397 | 9.93587 | 35569 ft | 450 kts | 319° |
| 2026-05-07 14:20 | 48.10776 | 9.90647 | 35904 ft | 450 kts | 319° |
| 2026-05-07 14:20 | 48.13188 | 9.87664 | 36240 ft | 449 kts | 319° |
| 2026-05-07 14:20 | 48.15592 | 9.84684 | 36546 ft | 448 kts | 319° |
| 2026-05-07 14:21 | 48.18016 | 9.81750 | 36838 ft | 449 kts | 324° |
| 2026-05-07 14:21 | 48.20779 | 9.79567 | 37084 ft | 452 kts | 339° |
| 2026-05-07 14:21 | 48.23837 | 9.78474 | 37326 ft | 454 kts | 348° |
| 2026-05-07 14:21 | 48.26952 | 9.77654 | 37545 ft | 455 kts | 348° |
| 2026-05-07 14:22 | 48.30077 | 9.76843 | 37767 ft | 455 kts | 348° |
| 2026-05-07 14:22 | 48.33199 | 9.76034 | 37950 ft | 456 kts | 348° |
| 2026-05-07 14:22 | 48.36329 | 9.75223 | 38007 ft | 456 kts | 348° |
| 2026-05-07 14:23 | 48.42580 | 9.73591 | 38009 ft | 456 kts | 348° |
| 2026-05-07 14:23 | 48.48842 | 9.71935 | 38009 ft | 457 kts | 348° |
| 2026-05-07 14:24 | 48.55099 | 9.70275 | 38009 ft | 457 kts | 348° |
| 2026-05-07 14:24 | 48.61363 | 9.68617 | 38008 ft | 456 kts | 348° |
| 2026-05-07 14:25 | 48.67619 | 9.66965 | 38018 ft | 456 kts | 348° |
| 2026-05-07 14:25 | 48.73871 | 9.65308 | 38025 ft | 456 kts | 348° |
| 2026-05-07 14:26 | 48.80128 | 9.63634 | 38024 ft | 456 kts | 348° |
| 2026-05-07 14:26 | 48.86377 | 9.61960 | 38024 ft | 456 kts | 348° |
| 2026-05-07 14:27 | 48.92621 | 9.60286 | 38025 ft | 455 kts | 348° |
| 2026-05-07 14:27 | 48.98862 | 9.58614 | 38025 ft | 456 kts | 348° |
| 2026-05-07 14:28 | 49.05113 | 9.56929 | 38021 ft | 455 kts | 348° |
| 2026-05-07 14:28 | 49.11346 | 9.55141 | 38022 ft | 454 kts | 343° |
| 2026-05-07 14:29 | 49.17427 | 9.52520 | 38024 ft | 454 kts | 341° |
| 2026-05-07 14:29 | 49.23451 | 9.49761 | 38027 ft | 454 kts | 341° |
| 2026-05-07 14:30 | 49.29495 | 9.46996 | 38032 ft | 454 kts | 341° |
| 2026-05-07 14:30 | 49.35560 | 9.44257 | 38026 ft | 453 kts | 342° |
| 2026-05-07 14:31 | 49.41617 | 9.41517 | 38026 ft | 453 kts | 342° |
| 2026-05-07 14:31 | 49.47665 | 9.38777 | 38024 ft | 453 kts | 341° |
| 2026-05-07 14:32 | 49.53716 | 9.36025 | 38023 ft | 453 kts | 341° |
| 2026-05-07 14:32 | 49.59766 | 9.33267 | 38018 ft | 453 kts | 341° |
| 2026-05-07 14:33 | 49.65765 | 9.30520 | 38023 ft | 454 kts | 341° |
| 2026-05-07 14:33 | 49.71837 | 9.27737 | 38029 ft | 455 kts | 341° |
| 2026-05-07 14:34 | 49.77870 | 9.24955 | 38028 ft | 454 kts | 341° |
| 2026-05-07 14:34 | 49.83944 | 9.22153 | 38029 ft | 453 kts | 341° |
| 2026-05-07 14:35 | 49.89993 | 9.19366 | 38030 ft | 453 kts | 341° |
| 2026-05-07 14:35 | 49.96006 | 9.16589 | 38026 ft | 453 kts | 341° |
| 2026-05-07 14:36 | 50.02038 | 9.13770 | 38027 ft | 453 kts | 341° |
| 2026-05-07 14:36 | 50.08069 | 9.10961 | 38019 ft | 452 kts | 341° |
| 2026-05-07 14:37 | 50.14104 | 9.08154 | 38019 ft | 452 kts | 341° |
| 2026-05-07 14:37 | 50.23176 | 9.03894 | 38024 ft | 452 kts | 341° |
| 2026-05-07 14:38 | 50.29154 | 9.01084 | 38020 ft | 452 kts | 341° |
| 2026-05-07 14:38 | 50.35171 | 8.98240 | 38017 ft | 451 kts | 341° |
| 2026-05-07 14:39 | 50.41190 | 8.95414 | 38017 ft | 451 kts | 341° |
| 2026-05-07 14:39 | 50.47198 | 8.92562 | 38019 ft | 451 kts | 341° |
| 2026-05-07 14:40 | 50.52156 | 8.89834 | 38013 ft | 449 kts | 332° |
| 2026-05-07 14:40 | 50.57320 | 8.84446 | 38010 ft | 446 kts | 321° |
| 2026-05-07 14:41 | 50.62255 | 8.78515 | 38006 ft | 446 kts | 321° |
| 2026-05-07 14:41 | 50.67165 | 8.72617 | 38007 ft | 447 kts | 321° |
| 2026-05-07 14:42 | 50.72105 | 8.66680 | 38009 ft | 447 kts | 321° |
| 2026-05-07 14:42 | 50.77046 | 8.60703 | 38010 ft | 447 kts | 321° |
| 2026-05-07 14:43 | 50.81976 | 8.54704 | 38009 ft | 447 kts | 321° |
| 2026-05-07 14:43 | 50.86904 | 8.48687 | 38009 ft | 447 kts | 321° |
| 2026-05-07 14:44 | 50.91834 | 8.42669 | 38007 ft | 448 kts | 321° |
| 2026-05-07 14:44 | 50.94311 | 8.39648 | 37379 ft | 454 kts | 321° |
| 2026-05-07 14:44 | 50.96831 | 8.36563 | 36547 ft | 457 kts | 321° |
| 2026-05-07 14:45 | 50.99355 | 8.33468 | 35720 ft | 460 kts | 321° |
| 2026-05-07 14:45 | 51.01941 | 8.30448 | 34747 ft | 465 kts | 326° |
| 2026-05-07 14:45 | 51.04756 | 8.27877 | 33871 ft | 468 kts | 329° |
| 2026-05-07 14:45 | 51.07598 | 8.25345 | 32886 ft | 471 kts | 329° |
| 2026-05-07 14:46 | 51.10464 | 8.22792 | 32067 ft | 470 kts | 329° |
| 2026-05-07 14:46 | 51.13319 | 8.20250 | 31084 ft | 470 kts | 329° |
| 2026-05-07 14:46 | 51.16177 | 8.17711 | 29726 ft | 472 kts | 329° |
| 2026-05-07 14:46 | 51.19035 | 8.15172 | 28707 ft | 467 kts | 329° |
| 2026-05-07 14:47 | 51.21829 | 8.12682 | 27987 ft | 455 kts | 329° |
| 2026-05-07 14:47 | 51.24559 | 8.10245 | 27271 ft | 443 kts | 329° |
| 2026-05-07 14:47 | 51.27211 | 8.07872 | 26580 ft | 433 kts | 329° |
| 2026-05-07 14:47 | 51.29804 | 8.05538 | 25911 ft | 423 kts | 329° |
| 2026-05-07 14:48 | 51.32330 | 8.03254 | 25257 ft | 414 kts | 328° |
| 2026-05-07 14:48 | 51.34821 | 8.01002 | 24617 ft | 404 kts | 328° |
| 2026-05-07 14:48 | 51.37248 | 7.98813 | 23992 ft | 397 kts | 329° |
| 2026-05-07 14:48 | 51.39647 | 7.96651 | 23394 ft | 392 kts | 329° |
| 2026-05-07 14:49 | 51.42020 | 7.94488 | 22773 ft | 393 kts | 326° |
| 2026-05-07 14:49 | 51.44083 | 7.91659 | 22102 ft | 391 kts | 308° |
| 2026-05-07 14:49 | 51.45518 | 7.87987 | 21474 ft | 389 kts | 292° |
| 2026-05-07 14:49 | 51.46298 | 7.83851 | 20891 ft | 388 kts | 278° |
| 2026-05-07 14:50 | 51.46411 | 7.79555 | 20323 ft | 387 kts | 265° |
| 2026-05-07 14:50 | 51.45869 | 7.75332 | 19758 ft | 387 kts | 255° |
| 2026-05-07 14:50 | 51.45132 | 7.71183 | 19220 ft | 385 kts | 254° |
| 2026-05-07 14:50 | 51.44396 | 7.67075 | 18752 ft | 382 kts | 254° |
| 2026-05-07 14:51 | 51.43661 | 7.63002 | 18239 ft | 379 kts | 254° |
| 2026-05-07 14:51 | 51.42930 | 7.58968 | 17750 ft | 376 kts | 255° |
| 2026-05-07 14:51 | 51.42208 | 7.54974 | 17232 ft | 374 kts | 254° |
| 2026-05-07 14:51 | 51.41488 | 7.50967 | 16729 ft | 372 kts | 255° |
| 2026-05-07 14:52 | 51.40797 | 7.46982 | 16200 ft | 370 kts | 255° |
| 2026-05-07 14:52 | 51.40122 | 7.43008 | 15680 ft | 369 kts | 255° |
| 2026-05-07 14:52 | 51.39455 | 7.39055 | 15134 ft | 366 kts | 255° |
| 2026-05-07 14:52 | 51.38790 | 7.35139 | 14611 ft | 363 kts | 255° |
| 2026-05-07 14:53 | 51.38123 | 7.31252 | 14077 ft | 360 kts | 255° |
| 2026-05-07 14:53 | 51.37459 | 7.27400 | 13542 ft | 358 kts | 255° |
| 2026-05-07 14:53 | 51.36798 | 7.23581 | 13005 ft | 356 kts | 255° |
| 2026-05-07 14:53 | 51.36176 | 7.19987 | 12500 ft | 352 kts | 255° |
| 2026-05-07 14:54 | 51.35535 | 7.16224 | 11959 ft | 349 kts | 255° |
| 2026-05-07 14:54 | 51.34885 | 7.12504 | 11409 ft | 345 kts | 255° |
| 2026-05-07 14:54 | 51.34241 | 7.08837 | 10867 ft | 341 kts | 255° |
| 2026-05-07 14:54 | 51.33609 | 7.05234 | 10604 ft | 330 kts | 255° |
| 2026-05-07 14:55 | 51.32996 | 7.01762 | 10476 ft | 318 kts | 255° |
| 2026-05-07 14:55 | 51.32402 | 6.98415 | 10340 ft | 307 kts | 255° |
| 2026-05-07 14:55 | 51.31829 | 6.95196 | 10220 ft | 295 kts | 254° |
| 2026-05-07 14:55 | 51.31278 | 6.92086 | 10092 ft | 286 kts | 254° |
| 2026-05-07 14:56 | 51.30742 | 6.89061 | 9869 ft | 280 kts | 255° |
| 2026-05-07 14:56 | 51.30217 | 6.86084 | 9547 ft | 280 kts | 255° |
| 2026-05-07 14:56 | 51.29689 | 6.83090 | 9234 ft | 279 kts | 255° |
| 2026-05-07 14:56 | 51.29166 | 6.80131 | 8866 ft | 275 kts | 255° |
| 2026-05-07 14:57 | 51.28644 | 6.77193 | 8429 ft | 274 kts | 255° |
| 2026-05-07 14:57 | 51.28119 | 6.74274 | 7964 ft | 272 kts | 254° |
| 2026-05-07 14:57 | 51.27569 | 6.71402 | 7390 ft | 270 kts | 253° |
| 2026-05-07 14:57 | 51.27005 | 6.68565 | 6817 ft | 268 kts | 253° |
| 2026-05-07 14:58 | 51.26440 | 6.65752 | 6196 ft | 264 kts | 253° |
| 2026-05-07 14:58 | 51.25878 | 6.62961 | 5657 ft | 262 kts | 253° |
| 2026-05-07 14:58 | 51.25331 | 6.60229 | 5127 ft | 260 kts | 253° |
| 2026-05-07 14:58 | 51.24797 | 6.57548 | 4889 ft | 245 kts | 253° |
| 2026-05-07 14:59 | 51.24297 | 6.55050 | 4749 ft | 228 kts | 253° |
| 2026-05-07 14:59 | 51.23829 | 6.52715 | 4605 ft | 212 kts | 253° |
| 2026-05-07 14:59 | 51.23396 | 6.50557 | 4476 ft | 197 kts | 253° |
| 2026-05-07 14:59 | 51.22989 | 6.48550 | 4407 ft | 185 kts | 251° |
| 2026-05-07 15:00 | 51.22333 | 6.46811 | 4263 ft | 185 kts | 230° |
| 2026-05-07 15:00 | 51.21296 | 6.45635 | 4135 ft | 184 kts | 208° |
| 2026-05-07 15:00 | 51.20049 | 6.45212 | 4002 ft | 185 kts | 184° |
| 2026-05-07 15:00 | 51.18801 | 6.45645 | 3868 ft | 185 kts | 159° |
| 2026-05-07 15:01 | 51.17805 | 6.46917 | 3744 ft | 184 kts | 130° |
| 2026-05-07 15:01 | 51.17264 | 6.48762 | 3631 ft | 187 kts | 102° |
| 2026-05-07 15:01 | 51.17278 | 6.50798 | 3500 ft | 181 kts | 79° |
| 2026-05-07 15:01 | 51.17518 | 6.52726 | 3360 ft | 173 kts | 70° |
| 2026-05-07 15:02 | 51.18055 | 6.54325 | 3305 ft | 158 kts | 53° |
| 2026-05-07 15:02 | 51.18679 | 6.55743 | 3120 ft | 152 kts | 50° |
| 2026-05-07 15:02 | 51.19300 | 6.57079 | 2967 ft | 150 kts | 49° |
| 2026-05-07 15:02 | 51.19919 | 6.58389 | 2763 ft | 147 kts | 50° |
| 2026-05-07 15:03 | 51.20533 | 6.59675 | 2562 ft | 146 kts | 49° |
| 2026-05-07 15:03 | 51.21150 | 6.60964 | 2362 ft | 144 kts | 49° |
| 2026-05-07 15:03 | 51.21763 | 6.62244 | 2165 ft | 145 kts | 49° |
| 2026-05-07 15:03 | 51.22375 | 6.63523 | 1974 ft | 144 kts | 49° |
| 2026-05-07 15:04 | 51.22982 | 6.64789 | 1800 ft | 145 kts | 49° |
| 2026-05-07 15:04 | 51.23592 | 6.66059 | 1600 ft | 143 kts | 48° |
| 2026-05-07 15:04 | 51.24193 | 6.67305 | 1417 ft | 142 kts | 49° |
| 2026-05-07 15:04 | 51.24792 | 6.68560 | 1270 ft | 141 kts | 50° |
| 2026-05-07 15:05 | 51.25389 | 6.69807 | 1034 ft | 141 kts | 49° |
| 2026-05-07 15:05 | 51.25982 | 6.71048 | 854 ft | 140 kts | 50° |
| 2026-05-07 15:05 | 51.26574 | 6.72284 | 664 ft | 140 kts | 50° |
| 2026-05-07 15:05 | 51.27157 | 6.73515 | 490 ft | 138 kts | 49° |
| 2026-05-07 15:06 | 51.27742 | 6.74733 | 296 ft | 137 kts | 50° |
| 2026-05-07 15:06 | 51.28313 | 6.75933 | 147 ft | 135 kts | 51° |
| 2026-05-07 15:06 | 51.28805 | 6.76970 | 127 ft | 95 kts | 53° |
| 2026-05-07 15:06 | 51.29116 | 6.77622 | 132 ft | 59 kts | 53° |
| 2026-05-07 15:07 | 51.29284 | 6.77983 | 141 ft | 19 kts | 56° |
| 2026-05-07 15:07 | 51.29273 | 6.78168 | 140 ft | 17 kts | 132° |
| 2026-05-07 15:07 | 51.29177 | 6.78199 | 137 ft | 14 kts | 207° |
| 2026-05-07 15:07 | 51.29104 | 6.78067 | 132 ft | 18 kts | 230° |
| 2026-05-07 15:08 | 51.29027 | 6.77903 | 131 ft | 17 kts | 232° |
| 2026-05-07 15:08 | 51.28951 | 6.77746 | 130 ft | 19 kts | 232° |
| 2026-05-07 15:08 | 51.28872 | 6.77579 | 130 ft | 19 kts | 233° |
| 2026-05-07 15:08 | 51.28791 | 6.77409 | 128 ft | 19 kts | 232° |
| 2026-05-07 15:09 | 51.28708 | 6.77235 | 130 ft | 20 kts | 233° |
| 2026-05-07 15:09 | 51.28623 | 6.77055 | 126 ft | 21 kts | 233° |
| 2026-05-07 15:09 | 51.28538 | 6.76880 | 126 ft | 20 kts | 232° |
| 2026-05-07 15:09 | 51.28454 | 6.76701 | 126 ft | 21 kts | 233° |
| 2026-05-07 15:10 | 51.28378 | 6.76544 | 126 ft | 18 kts | 233° |
| 2026-05-07 15:10 | 51.28312 | 6.76492 | 127 ft | 9 kts | 158° |
| 2026-05-07 15:10 | 51.28258 | 6.76479 | 126 ft | 9 kts | 227° |
| 2026-05-07 15:10 | 51.28203 | 6.76436 | 131 ft | 9 kts | 187° |
| 2026-05-07 15:11 | 51.28156 | 6.76458 | 127 ft | 6 kts | 107° |
| 2026-05-07 15:11 | 51.28152 | 6.76521 | 129 ft | 2 kts | 97° |
| 2026-05-07 15:11 | 51.28150 | 6.76543 | 131 ft | 2 kts | 97° |
| 2026-05-07 15:11 | 51.28149 | 6.76548 | 131 ft | 0 kts | 97° |